Time;durP1;ratioP1;P1;durP2;ratioP2;P2;SDS_P1;SDS_P2;PMS_P1;PMS_P2;Temp;Humidity;BMP_temperature;BMP_pressure;BME280_temperature;BME280_humidity;BME280_pressure;Samples;Min_cycle;Max_cycle;Signal;HPM_P1;HPM_P2
2023/01/03 00:02:06;;;;;;;0.38;0.30;;;;;;;;;;5094844;28;20054;-89
2023/01/03 00:04:33;;;;;;;0.82;0.32;;;;;;;;;;5095189;28;20052;-89
2023/01/03 00:07:01;;;;;;;0.73;0.50;;;;;;;;;;5094971;28;20059;-88
2023/01/03 00:09:28;;;;;;;2.10;0.38;;;;;;;;;;5095458;28;20415;-89
2023/01/03 00:14:41;;;;;;;1.42;0.40;;;;;;;;;;5095866;28;20052;-89
2023/01/03 00:17:09;;;;;;;2.08;0.30;;;;;;;;;;5094538;28;20040;-88
2023/01/03 00:19:38;;;;;;;1.38;0.38;;;;;;;;;;5094931;28;20576;-89
2023/01/03 00:22:06;;;;;;;2.72;1.00;;;;;;;;;;5094580;28;20040;-88
2023/01/03 00:24:33;;;;;;;5.90;0.90;;;;;;;;;;5094801;28;20052;-88
2023/01/03 00:27:00;;;;;;;2.72;1.30;;;;;;;;;;5094560;28;20050;-88
2023/01/03 00:29:30;;;;;;;1.48;1.38;;;;;;;;;;5094827;28;20056;-88
2023/01/03 00:31:57;;;;;;;4.28;2.70;;;;;;;;;;5094619;28;20082;-88
2023/01/03 00:34:25;;;;;;;5.10;2.00;;;;;;;;;;5094676;28;20058;-88
2023/01/03 00:36:52;;;;;;;2.78;2.15;;;;;;;;;;5094481;28;20101;-89
2023/01/03 00:39:19;;;;;;;2.20;2.00;;;;;;;;;;5094591;28;20052;-88
2023/01/03 00:41:46;;;;;;;4.43;1.63;;;;;;;;;;5094333;28;20056;-88
2023/01/03 00:44:14;;;;;;;1.73;1.30;;;;;;;;;;5094229;28;20052;-88
2023/01/03 00:46:41;;;;;;;3.28;1.55;;;;;;;;;;5094315;28;20050;-88
2023/01/03 00:49:09;;;;;;;2.75;1.30;;;;;;;;;;5094402;28;20048;-88
2023/01/03 00:51:37;;;;;;;2.83;1.13;;;;;;;;;;5094357;28;20044;-88
2023/01/03 00:54:05;;;;;;;1.63;1.10;;;;;;;;;;5094311;28;20052;-88
2023/01/03 00:56:34;;;;;;;3.10;1.40;;;;;;;;;;5094461;28;20055;-89
2023/01/03 00:59:01;;;;;;;1.67;1.00;;;;;;;;;;5102018;28;20055;-88
2023/01/03 01:01:30;;;;;;;3.22;1.10;;;;;;;;;;5093947;28;20287;-89
2023/01/03 01:04:02;;;;;;;1.38;1.20;;;;;;;;;;5094096;28;20052;-89
2023/01/03 01:06:32;;;;;;;3.63;0.90;;;;;;;;;;5093814;28;20135;-88
2023/01/03 01:09:00;;;;;;;0.93;0.60;;;;;;;;;;5094098;28;20066;-88
2023/01/03 01:11:28;;;;;;;1.33;0.45;;;;;;;;;;5093855;28;20134;-88
2023/01/03 01:13:55;;;;;;;1.35;0.60;;;;;;;;;;5094104;28;20051;-88
2023/01/03 01:16:24;;;;;;;0.47;0.43;;;;;;;;;;5093701;28;20056;-88
2023/01/03 01:18:52;;;;;;;0.70;0.52;;;;;;;;;;5093623;28;20550;-88
2023/01/03 01:21:21;;;;;;;6.18;0.90;;;;;;;;;;5093893;28;20055;-89
2023/01/03 01:23:48;;;;;;;1.15;0.80;;;;;;;;;;5093976;28;20497;-89
2023/01/03 01:26:17;;;;;;;1.85;0.82;;;;;;;;;;5093579;28;20052;-88
2023/01/03 01:28:44;;;;;;;0.82;0.70;;;;;;;;;;5093892;28;20059;-88
2023/01/03 01:31:13;;;;;;;2.95;0.60;;;;;;;;;;5094012;28;20040;-88
2023/01/03 01:33:41;;;;;;;2.83;0.82;;;;;;;;;;5092804;28;20094;-88
2023/01/03 01:36:16;;;;;;;0.60;0.60;;;;;;;;;;5093301;28;20055;-87
2023/01/03 01:38:43;;;;;;;1.15;0.88;;;;;;;;;;5093493;28;20052;-87
2023/01/03 01:41:13;;;;;;;2.35;0.52;;;;;;;;;;5093451;28;20063;-88
2023/01/03 01:46:43;;;;;;;2.42;0.90;;;;;;;;;;5094452;28;20055;-88
2023/01/03 01:49:14;;;;;;;0.82;0.80;;;;;;;;;;5093192;28;20083;-88
2023/01/03 01:51:41;;;;;;;1.75;0.65;;;;;;;;;;5093293;28;20044;-88
2023/01/03 01:54:09;;;;;;;6.78;0.98;;;;;;;;;;5092959;28;20044;-88
2023/01/03 01:56:39;;;;;;;0.80;0.80;;;;;;;;;;5093064;28;20135;-88
2023/01/03 01:59:08;;;;;;;1.38;0.70;;;;;;;;;;5092844;28;20052;-88
2023/01/03 02:01:35;;;;;;;3.03;0.90;;;;;;;;;;5092965;28;20070;-88
2023/01/03 02:04:05;;;;;;;1.38;1.10;;;;;;;;;;5093063;28;20131;-88
2023/01/03 02:06:33;;;;;;;3.28;0.70;;;;;;;;;;5092920;28;20135;-88
2023/01/03 02:09:00;;;;;;;7.45;0.93;;;;;;;;;;5092756;28;20060;-87
2023/01/03 02:11:46;;;;;;;1.15;0.68;;;;;;;;;;5092853;28;20404;-88
2023/01/03 02:14:32;;;;;;;1.40;1.20;;;;;;;;;;5092964;28;20473;-87
2023/01/03 02:17:17;;;;;;;1.48;0.70;;;;;;;;;;5092573;28;20060;-88
2023/01/03 02:19:55;;;;;;;1.15;0.70;;;;;;;;;;5092822;28;20048;-88
2023/01/03 02:22:39;;;;;;;1.02;0.60;;;;;;;;;;5092865;28;20048;-88
2023/01/03 02:25:13;;;;;;;3.47;1.05;;;;;;;;;;5092742;28;20040;-88
2023/01/03 02:27:52;;;;;;;2.97;0.90;;;;;;;;;;5092767;28;20044;-88
2023/01/03 02:30:27;;;;;;;1.67;0.75;;;;;;;;;;5092782;28;20059;-88
2023/01/03 02:33:00;;;;;;;0.70;0.70;;;;;;;;;;5092560;28;20051;-87
2023/01/03 02:35:31;;;;;;;0.85;0.80;;;;;;;;;;5092892;28;20078;-88
2023/01/03 02:37:58;;;;;;;1.30;0.88;;;;;;;;;;5092485;28;20397;-88
2023/01/03 02:40:34;;;;;;;1.98;0.68;;;;;;;;;;5092673;28;20051;-88
2023/01/03 02:43:07;;;;;;;0.57;0.52;;;;;;;;;;5092584;28;20048;-88
2023/01/03 02:45:37;;;;;;;2.00;0.90;;;;;;;;;;5096244;28;20052;-88
2023/01/03 02:48:11;;;;;;;2.47;1.00;;;;;;;;;;5096876;28;20107;-89
2023/01/03 02:50:42;;;;;;;0.80;0.80;;;;;;;;;;5105756;28;20067;-89
2023/01/03 02:53:12;;;;;;;2.00;1.00;;;;;;;;;;5096510;28;20040;-89
2023/01/03 02:55:40;;;;;;;1.48;1.13;;;;;;;;;;5096555;28;20044;-90
2023/01/03 02:58:10;;;;;;;3.17;1.10;;;;;;;;;;5096324;28;20115;-90
2023/01/03 03:00:40;;;;;;;1.02;1.00;;;;;;;;;;5096454;28;20127;-90
2023/01/03 03:03:11;;;;;;;1.13;0.85;;;;;;;;;;5096130;28;20048;-88
2023/01/03 03:05:59;;;;;;;3.22;0.93;;;;;;;;;;5096336;28;20461;-88
2023/01/03 03:08:26;;;;;;;3.08;1.40;;;;;;;;;;5096354;28;20060;-88
2023/01/03 03:13:43;;;;;;;1.35;1.17;;;;;;;;;;5097156;28;20097;-88
2023/01/03 03:16:15;;;;;;;1.60;1.17;;;;;;;;;;5095835;28;20052;-88
2023/01/03 03:18:59;;;;;;;1.55;1.00;;;;;;;;;;5096086;28;20047;-89
2023/01/03 03:29:57;;;;;;;5.65;1.13;;;;;;;;;;5075658;28;20480;-88
2023/01/03 03:32:26;;;;;;;2.85;0.60;;;;;;;;;;5095492;28;20052;-88
2023/01/03 03:34:57;;;;;;;1.50;0.80;;;;;;;;;;5095650;28;20126;-88
2023/01/03 03:37:25;;;;;;;0.88;0.60;;;;;;;;;;5095604;28;20055;-89
2023/01/03 03:46:01;;;;;;;0.93;0.60;;;;;;;;;;5096648;28;20047;-88
2023/01/03 03:49:36;;;;;;;0.60;0.50;;;;;;;;;;5095557;28;20477;-88
2023/01/03 03:51:19;;;;;;;2.25;0.50;;;;;;;;;;5096415;28;20048;-89
2023/01/03 03:53:47;;;;;;;4.28;0.60;;;;;;;;;;5095461;28;20048;-88
2023/01/03 03:56:16;;;;;;;1.67;0.50;;;;;;;;;;5094521;28;20147;-88
2023/01/03 03:58:45;;;;;;;4.28;0.90;;;;;;;;;;5095143;28;20496;-88
2023/01/03 04:01:14;;;;;;;0.85;0.70;;;;;;;;;;5095221;28;20048;-88
2023/01/03 04:03:43;;;;;;;0.95;0.57;;;;;;;;;;5095170;28;20056;-88
2023/01/03 04:06:18;;;;;;;1.25;0.57;;;;;;;;;;5095040;28;20139;-88
2023/01/03 04:08:45;;;;;;;2.70;0.65;;;;;;;;;;5095057;28;20492;-88
2023/01/03 04:11:12;;;;;;;3.10;0.73;;;;;;;;;;5095257;28;20058;-88
2023/01/03 04:13:40;;;;;;;0.43;0.40;;;;;;;;;;5095117;28;20048;-88
2023/01/03 04:16:07;;;;;;;3.45;0.90;;;;;;;;;;5094648;28;20054;-88
2023/01/03 04:18:34;;;;;;;2.92;0.50;;;;;;;;;;5094758;28;20454;-87
2023/01/03 04:21:02;;;;;;;0.55;0.55;;;;;;;;;;5094841;28;20051;-88
2023/01/03 04:23:29;;;;;;;1.20;0.50;;;;;;;;;;5094834;28;20052;-88
2023/01/03 04:25:56;;;;;;;1.65;0.60;;;;;;;;;;5094901;28;20135;-87
2023/01/03 04:28:23;;;;;;;2.22;0.68;;;;;;;;;;5094873;28;20480;-87
2023/01/03 04:30:51;;;;;;;0.80;0.75;;;;;;;;;;5094679;28;20040;-88
2023/01/03 04:33:18;;;;;;;0.60;0.60;;;;;;;;;;5094558;28;20051;-87
2023/01/03 04:35:45;;;;;;;0.85;0.85;;;;;;;;;;5094771;28;20054;-87
2023/01/03 04:38:12;;;;;;;3.15;1.00;;;;;;;;;;5094337;28;20075;-87
2023/01/03 04:40:39;;;;;;;1.73;0.70;;;;;;;;;;5094497;28;20080;-87
2023/01/03 04:45:53;;;;;;;1.05;0.80;;;;;;;;;;5095109;28;20075;-87
2023/01/03 04:48:20;;;;;;;3.55;0.98;;;;;;;;;;5094219;28;20093;-87
2023/01/03 04:50:52;;;;;;;8.25;3.85;;;;;;;;;;5094328;28;20468;-87
2023/01/03 04:53:19;;;;;;;2.65;2.08;;;;;;;;;;5094160;28;20055;-87
2023/01/03 04:55:47;;;;;;;1.27;1.17;;;;;;;;;;5094038;28;20506;-88
2023/01/03 04:58:14;;;;;;;1.38;1.30;;;;;;;;;;5094099;28;20492;-88
2023/01/03 05:00:44;;;;;;;5.47;2.05;;;;;;;;;;5094223;28;20066;-88
2023/01/03 05:03:11;;;;;;;3.47;1.23;;;;;;;;;;5094290;28;20101;-88
2023/01/03 05:05:39;;;;;;;1.20;1.10;;;;;;;;;;5093916;28;20318;-88
2023/01/03 05:08:08;;;;;;;3.92;1.13;;;;;;;;;;5092955;28;20127;-88
2023/01/03 05:10:37;;;;;;;8.35;1.13;;;;;;;;;;5094039;28;20060;-87
2023/01/03 05:13:04;;;;;;;3.45;1.20;;;;;;;;;;5093791;28;20055;-88
2023/01/03 05:15:34;;;;;;;2.13;1.15;;;;;;;;;;5093638;28;20458;-88
2023/01/03 05:18:01;;;;;;;2.92;1.33;;;;;;;;;;5093673;28;20497;-88
2023/01/03 05:26:04;;;;;;;9.80;3.33;;;;;;;;;;5094568;28;20083;-88
2023/01/03 05:28:31;;;;;;;4.65;3.25;;;;;;;;;;5093785;28;20048;-87
2023/01/03 05:30:58;;;;;;;4.32;2.90;;;;;;;;;;5093559;28;20496;-88
2023/01/03 05:33:25;;;;;;;4.38;3.20;;;;;;;;;;5093818;28;20054;-88
2023/01/03 05:35:52;;;;;;;1.77;1.55;;;;;;;;;;5093872;28;20058;-88
2023/01/03 05:38:21;;;;;;;1.80;1.70;;;;;;;;;;5094271;28;20071;-88
2023/01/03 05:40:48;;;;;;;2.45;2.13;;;;;;;;;;5100936;28;20066;-88
2023/01/03 05:43:15;;;;;;;2.30;2.10;;;;;;;;;;5093497;28;20056;-88
2023/01/03 05:45:42;;;;;;;2.38;2.10;;;;;;;;;;5093366;28;20044;-88
2023/01/03 05:48:10;;;;;;;2.30;2.10;;;;;;;;;;5093301;28;20059;-88
2023/01/03 05:50:37;;;;;;;2.10;2.00;;;;;;;;;;5093479;28;20131;-88
2023/01/03 05:53:04;;;;;;;4.63;1.42;;;;;;;;;;5093366;28;20411;-88
2023/01/03 05:55:31;;;;;;;1.40;1.30;;;;;;;;;;5093410;28;20059;-87
2023/01/03 05:57:59;;;;;;;2.00;1.52;;;;;;;;;;5093081;28;20052;-88
2023/01/03 06:00:29;;;;;;;1.50;1.40;;;;;;;;;;5093270;28;20052;-88
2023/01/03 06:02:56;;;;;;;1.42;1.27;;;;;;;;;;5093046;28;20071;-88
2023/01/03 06:05:23;;;;;;;2.65;1.80;;;;;;;;;;5092955;28;20044;-88
2023/01/03 06:07:50;;;;;;;4.57;1.85;;;;;;;;;;5093190;28;20403;-89
2023/01/03 06:10:20;;;;;;;2.97;1.92;;;;;;;;;;5092810;28;20040;-88
2023/01/03 06:12:48;;;;;;;2.90;2.00;;;;;;;;;;5092779;28;20059;-88
2023/01/03 06:15:15;;;;;;;2.47;1.50;;;;;;;;;;5092507;28;20056;-88
2023/01/03 06:17:56;;;;;;;4.93;2.30;;;;;;;;;;5092826;28;20055;-88
2023/01/03 06:20:24;;;;;;;3.90;1.77;;;;;;;;;;5092248;28;20073;-88
2023/01/03 06:22:52;;;;;;;2.67;1.60;;;;;;;;;;5092840;28;20048;-88
2023/01/03 06:25:20;;;;;;;5.72;1.55;;;;;;;;;;5092745;28;20159;-88
2023/01/03 06:27:47;;;;;;;3.45;2.03;;;;;;;;;;5092644;28;20067;-88
2023/01/03 06:30:14;;;;;;;3.85;3.22;;;;;;;;;;5092547;28;20058;-88
2023/01/03 06:32:42;;;;;;;3.40;3.10;;;;;;;;;;5092848;28;20058;-88
2023/01/03 06:35:09;;;;;;;2.80;2.33;;;;;;;;;;5092955;28;20476;-88
2023/01/03 06:37:36;;;;;;;3.38;2.80;;;;;;;;;;5092761;28;20059;-88
2023/01/03 06:40:04;;;;;;;3.00;2.70;;;;;;;;;;5092485;28;20135;-88
2023/01/03 06:42:43;;;;;;;7.93;3.97;;;;;;;;;;5092774;28;20499;-88
2023/01/03 06:53:34;;;;;;;6.63;4.50;;;;;;;;;;5093834;28;20050;-88
2023/01/03 06:56:01;;;;;;;13.13;5.75;;;;;;;;;;5092499;28;20492;-87
2023/01/03 06:58:29;;;;;;;13.02;5.85;;;;;;;;;;5092369;28;20381;-88
2023/01/03 07:00:58;;;;;;;13.55;5.75;;;;;;;;;;5092325;28;20412;-88
2023/01/03 07:03:25;;;;;;;15.80;8.75;;;;;;;;;;5092448;28;20048;-88
2023/01/03 07:05:53;;;;;;;15.82;9.90;;;;;;;;;;5092228;28;20048;-88
2023/01/03 07:08:20;;;;;;;11.20;7.07;;;;;;;;;;5092450;28;20087;-88
2023/01/03 07:10:47;;;;;;;13.48;8.43;;;;;;;;;;5092186;28;20048;-88
2023/01/03 07:16:00;;;;;;;9.73;6.85;;;;;;;;;;5092901;28;20063;-88
2023/01/03 07:18:27;;;;;;;12.35;9.25;;;;;;;;;;5092230;28;20074;-88
2023/01/03 07:20:55;;;;;;;11.65;5.93;;;;;;;;;;5092353;28;20051;-88
2023/01/03 07:23:22;;;;;;;8.98;4.88;;;;;;;;;;5092321;28;20048;-88
2023/01/03 07:25:49;;;;;;;9.20;5.38;;;;;;;;;;5092177;28;20052;-88
2023/01/03 07:28:16;;;;;;;9.13;5.90;;;;;;;;;;5092293;28;20481;-88
2023/01/03 07:30:44;;;;;;;12.80;7.03;;;;;;;;;;5092575;28;20055;-88
2023/01/03 07:33:12;;;;;;;9.48;5.93;;;;;;;;;;5095953;28;20056;-88
2023/01/03 07:35:39;;;;;;;8.38;5.15;;;;;;;;;;5095696;28;20054;-88
2023/01/03 07:38:07;;;;;;;5.25;4.75;;;;;;;;;;5095783;28;20062;-88
2023/01/03 07:40:35;;;;;;;6.75;4.97;;;;;;;;;;5095681;28;20426;-88
2023/01/03 07:45:48;;;;;;;10.95;7.60;;;;;;;;;;5096610;28;20059;-88
2023/01/03 07:48:15;;;;;;;23.02;16.55;;;;;;;;;;5095514;28;20136;-87
2023/01/03 07:50:42;;;;;;;11.00;9.50;;;;;;;;;;5095579;28;20048;-88
2023/01/03 07:53:15;;;;;;;11.00;6.25;;;;;;;;;;5095155;28;20138;-88
2023/01/03 07:55:44;;;;;;;8.10;4.70;;;;;;;;;;5095460;28;20131;-88
2023/01/03 07:58:11;;;;;;;7.38;4.70;;;;;;;;;;5095522;28;20555;-88
2023/01/03 08:00:39;;;;;;;9.18;7.25;;;;;;;;;;5095186;28;20052;-88
2023/01/03 08:03:06;;;;;;;12.40;10.60;;;;;;;;;;5095368;28;20134;-88
2023/01/03 08:05:37;;;;;;;16.80;10.82;;;;;;;;;;5095170;28;20079;-88
2023/01/03 08:08:04;;;;;;;13.45;10.02;;;;;;;;;;5095183;28;20054;-88
2023/01/03 08:13:17;;;;;;;17.70;9.32;;;;;;;;;;5096296;28;20477;-88
2023/01/03 08:15:49;;;;;;;9.70;8.73;;;;;;;;;;5094873;28;20565;-88
2023/01/03 08:18:18;;;;;;;13.27;11.27;;;;;;;;;;5094988;28;20040;-88
2023/01/03 08:20:46;;;;;;;33.28;20.55;;;;;;;;;;5094604;28;20052;-88
2023/01/03 08:23:13;;;;;;;29.08;20.67;;;;;;;;;;5095148;28;20064;-88
2023/01/03 08:25:40;;;;;;;23.33;15.18;;;;;;;;;;5094733;28;20056;-88
2023/01/03 08:28:09;;;;;;;13.45;9.68;;;;;;;;;;5094795;28;20407;-88
2023/01/03 08:30:38;;;;;;;13.60;9.40;;;;;;;;;;5094938;28;20078;-88
2023/01/03 08:33:07;;;;;;;9.38;7.68;;;;;;;;;;5094580;28;20050;-88
2023/01/03 08:35:36;;;;;;;10.30;8.10;;;;;;;;;;5095065;28;20488;-88
2023/01/03 08:38:04;;;;;;;12.38;10.90;;;;;;;;;;5094912;28;20052;-88
2023/01/03 08:40:34;;;;;;;20.95;18.80;;;;;;;;;;5094363;28;20122;-88
2023/01/03 08:43:09;;;;;;;13.77;11.27;;;;;;;;;;5094749;28;20111;-88
2023/01/03 08:45:37;;;;;;;11.30;9.45;;;;;;;;;;5094853;28;20105;-88
2023/01/03 08:48:05;;;;;;;26.33;21.30;;;;;;;;;;5094380;28;20147;-88
2023/01/03 08:50:32;;;;;;;28.48;18.67;;;;;;;;;;5094704;28;20131;-88
2023/01/03 08:53:00;;;;;;;16.25;13.02;;;;;;;;;;5094634;28;20060;-88
2023/01/03 08:55:27;;;;;;;16.90;12.30;;;;;;;;;;5094332;28;20460;-88
2023/01/03 08:57:54;;;;;;;16.80;13.90;;;;;;;;;;5094448;28;20051;-88
2023/01/03 09:00:21;;;;;;;15.55;13.88;;;;;;;;;;5094149;28;20069;-88
2023/01/03 09:02:49;;;;;;;19.83;15.38;;;;;;;;;;5094386;28;20136;-88
2023/01/03 09:05:16;;;;;;;21.35;15.88;;;;;;;;;;5094396;28;20051;-88
2023/01/03 09:07:43;;;;;;;16.85;12.40;;;;;;;;;;5094036;28;20496;-88
2023/01/03 09:10:11;;;;;;;21.95;15.05;;;;;;;;;;5093826;28;20506;-88
2023/01/03 09:12:38;;;;;;;19.10;14.05;;;;;;;;;;5093838;28;20083;-88
2023/01/03 09:15:06;;;;;;;20.95;14.85;;;;;;;;;;5093911;28;20055;-88
2023/01/03 09:17:33;;;;;;;16.00;9.82;;;;;;;;;;5093860;28;20416;-88
2023/01/03 09:20:00;;;;;;;14.63;9.23;;;;;;;;;;5093730;28;20074;-88
2023/01/03 09:22:27;;;;;;;10.70;8.52;;;;;;;;;;5093904;28;20044;-88
2023/01/03 09:24:55;;;;;;;12.80;7.45;;;;;;;;;;5093576;28;20062;-88
2023/01/03 09:27:22;;;;;;;22.40;14.00;;;;;;;;;;5093495;28;20075;-88
2023/01/03 09:29:49;;;;;;;18.20;11.93;;;;;;;;;;5093631;28;20128;-88
2023/01/03 09:32:16;;;;;;;30.00;13.23;;;;;;;;;;5093614;28;20480;-88
2023/01/03 09:34:44;;;;;;;32.75;20.20;;;;;;;;;;5093510;28;20075;-88
2023/01/03 09:37:11;;;;;;;62.95;33.53;;;;;;;;;;5093208;28;20050;-88
2023/01/03 09:39:41;;;;;;;38.47;22.73;;;;;;;;;;5093408;28;20127;-88
2023/01/03 09:44:59;;;;;;;60.63;33.33;;;;;;;;;;5097464;28;20062;-88
2023/01/03 09:47:36;;;;;;;63.80;35.38;;;;;;;;;;5096619;28;20108;-88
2023/01/03 09:50:05;;;;;;;58.83;32.38;;;;;;;;;;5096835;28;20105;-88
2023/01/03 10:04:23;;;;;;;43.38;25.13;;;;;;;;;;5098389;28;20048;-88
2023/01/03 10:06:56;;;;;;;39.45;22.45;;;;;;;;;;5094821;28;20078;-88
2023/01/03 10:09:26;;;;;;;37.38;20.30;;;;;;;;;;5093149;28;20052;-88
2023/01/03 10:12:05;;;;;;;32.78;16.05;;;;;;;;;;5092883;28;20052;-88
2023/01/03 10:14:59;;;;;;;30.17;15.95;;;;;;;;;;5092872;28;20047;-89
2023/01/03 10:17:41;;;;;;;24.55;13.85;;;;;;;;;;5088844;28;20058;-88
2023/01/03 10:20:26;;;;;;;28.23;11.70;;;;;;;;;;5092784;28;20044;-88
2023/01/03 10:23:00;;;;;;;38.42;22.63;;;;;;;;;;5092757;28;20124;-88
2023/01/03 10:25:28;;;;;;;31.35;15.07;;;;;;;;;;5092694;28;20083;-88
2023/01/03 10:28:00;;;;;;;46.25;22.98;;;;;;;;;;5092862;28;20126;-88
2023/01/03 10:30:43;;;;;;;34.53;19.50;;;;;;;;;;5092938;28;20134;-88
2023/01/03 10:33:20;;;;;;;44.17;19.23;;;;;;;;;;5092577;28;20058;-88
2023/01/03 10:35:48;;;;;;;37.45;17.95;;;;;;;;;;5092472;28;20056;-88
2023/01/03 10:38:15;;;;;;;39.55;18.67;;;;;;;;;;5092466;28;20044;-88
2023/01/03 10:40:45;;;;;;;44.67;16.98;;;;;;;;;;5092822;28;20097;-88
2023/01/03 10:43:17;;;;;;;55.10;19.52;;;;;;;;;;5092565;28;20138;-88
2023/01/03 10:45:57;;;;;;;39.35;16.17;;;;;;;;;;5092771;28;20101;-89
2023/01/03 10:48:25;;;;;;;31.20;12.48;;;;;;;;;;5092521;28;20131;-88
2023/01/03 10:50:53;;;;;;;42.83;13.23;;;;;;;;;;5092624;28;20139;-88
2023/01/03 10:53:21;;;;;;;46.90;15.55;;;;;;;;;;5092509;28;20051;-88
2023/01/03 10:55:53;;;;;;;27.27;11.00;;;;;;;;;;5092314;28;20187;-88
2023/01/03 10:58:23;;;;;;;20.13;8.93;;;;;;;;;;5092642;28;20143;-88
2023/01/03 11:01:10;;;;;;;33.05;12.80;;;;;;;;;;5092148;28;20140;-88
2023/01/03 11:03:43;;;;;;;18.73;7.38;;;;;;;;;;5092521;28;20117;-88
2023/01/03 11:06:17;;;;;;;16.90;6.28;;;;;;;;;;5093929;28;20052;-87
2023/01/03 11:08:45;;;;;;;14.63;5.72;;;;;;;;;;5096523;28;20074;-86
2023/01/03 11:11:27;;;;;;;23.63;4.03;;;;;;;;;;5096611;28;20048;-88
2023/01/03 11:14:05;;;;;;;18.92;5.78;;;;;;;;;;5096323;28;20063;-88
2023/01/03 11:16:32;;;;;;;10.13;2.60;;;;;;;;;;5095950;28;20554;-88
2023/01/03 11:19:04;;;;;;;12.90;2.40;;;;;;;;;;5096299;28;20604;-88
2023/01/03 11:21:45;;;;;;;2.70;1.15;;;;;;;;;;5096042;28;20048;-87
2023/01/03 11:24:31;;;;;;;5.10;1.20;;;;;;;;;;5096024;28;20149;-87
2023/01/03 11:26:58;;;;;;;3.05;1.23;;;;;;;;;;5095858;28;20048;-88
2023/01/03 11:29:32;;;;;;;1.00;1.00;;;;;;;;;;5096131;28;20091;-87
2023/01/03 11:32:18;;;;;;;2.47;0.90;;;;;;;;;;5095958;28;20134;-87
2023/01/03 11:34:54;;;;;;;5.75;0.88;;;;;;;;;;5096046;28;20480;-87
2023/01/03 11:38:00;;;;;;;2.15;1.40;;;;;;;;;;5095936;28;20050;-86
2023/01/03 11:40:33;;;;;;;0.47;0.45;;;;;;;;;;5095810;28;20051;-87
2023/01/03 11:43:20;;;;;;;2.67;0.68;;;;;;;;;;5095918;28;20043;-87
2023/01/03 11:46:08;;;;;;;0.43;0.43;;;;;;;;;;5095943;28;20059;-88
2023/01/03 11:48:50;;;;;;;1.27;0.50;;;;;;;;;;5045944;28;20047;-87
2023/01/03 11:51:23;;;;;;;1.80;0.63;;;;;;;;;;5095718;28;20123;-87
2023/01/03 11:53:53;;;;;;;2.93;0.40;;;;;;;;;;5095509;28;20075;-87
2023/01/03 11:56:34;;;;;;;0.77;0.50;;;;;;;;;;5095472;28;20302;-87
2023/01/03 11:59:06;;;;;;;0.40;0.40;;;;;;;;;;5095474;28;20476;-87
2023/01/03 12:01:37;;;;;;;0.73;0.57;;;;;;;;;;5094254;28;20050;-87
2023/01/03 12:04:26;;;;;;;0.85;0.50;;;;;;;;;;5095465;28;20056;-87
2023/01/03 12:07:06;;;;;;;1.67;0.47;;;;;;;;;;5095327;28;20056;-87
2023/01/03 12:09:56;;;;;;;0.40;0.40;;;;;;;;;;5095501;28;20071;-86
2023/01/03 12:12:33;;;;;;;2.25;0.70;;;;;;;;;;5095322;28;20119;-88
2023/01/03 12:15:21;;;;;;;1.88;0.60;;;;;;;;;;5094834;28;20155;-86
2023/01/03 12:17:54;;;;;;;3.03;0.80;;;;;;;;;;5079893;28;20044;-87
2023/01/03 12:20:23;;;;;;;1.45;0.63;;;;;;;;;;5095070;28;20056;-86
2023/01/03 12:23:16;;;;;;;1.98;1.05;;;;;;;;;;5095043;28;20134;-87
2023/01/03 12:25:49;;;;;;;2.08;1.30;;;;;;;;;;5090646;28;20044;-87
2023/01/03 12:28:21;;;;;;;1.88;0.63;;;;;;;;;;5094754;28;20058;-87
2023/01/03 12:31:00;;;;;;;0.50;0.50;;;;;;;;;;5094470;28;20053;-87
2023/01/03 12:33:34;;;;;;;0.75;0.40;;;;;;;;;;5094533;28;20052;-87
2023/01/03 12:36:01;;;;;;;;;;;;;;;;;;5094889;28;20127;-87
2023/01/03 12:38:31;;;;;;;1.02;0.80;;;;;;;;;;5094352;28;20015;-87
2023/01/03 12:41:18;;;;;;;2.30;0.60;;;;;;;;;;5094412;28;20094;-85
2023/01/03 12:43:50;;;;;;;0.50;0.40;;;;;;;;;;5094140;28;20135;-87
2023/01/03 12:46:23;;;;;;;2.13;1.15;;;;;;;;;;5094349;28;20059;-87
2023/01/03 12:49:01;;;;;;;0.50;0.50;;;;;;;;;;5094160;28;20494;-87
2023/01/03 12:51:29;;;;;;;3.10;0.85;;;;;;;;;;5094331;28;20052;-87
2023/01/03 12:54:05;;;;;;;0.75;0.50;;;;;;;;;;5094242;28;20077;-87
2023/01/03 12:56:35;;;;;;;2.42;0.63;;;;;;;;;;5094011;28;20139;-87
2023/01/03 12:59:06;;;;;;;7.10;0.88;;;;;;;;;;5094217;28;20515;-87
2023/01/03 13:01:42;;;;;;;1.75;0.70;;;;;;;;;;5093905;28;20048;-87
2023/01/03 13:04:13;;;;;;;1.05;0.52;;;;;;;;;;5094030;28;20059;-86
2023/01/03 13:06:51;;;;;;;0.98;0.50;;;;;;;;;;5093972;28;20078;-86
2023/01/03 13:09:25;;;;;;;1.10;0.80;;;;;;;;;;5093926;28;20054;-87
2023/01/03 13:11:54;;;;;;;0.77;0.50;;;;;;;;;;5093917;28;20076;-87
2023/01/03 13:14:25;;;;;;;0.47;0.40;;;;;;;;;;5094887;28;20044;-87
2023/01/03 13:16:53;;;;;;;1.70;0.60;;;;;;;;;;5093368;28;20503;-87
2023/01/03 13:19:21;;;;;;;1.85;0.60;;;;;;;;;;5093708;28;20101;-87
2023/01/03 13:21:54;;;;;;;1.33;0.98;;;;;;;;;;5093570;28;20509;-88
2023/01/03 13:24:39;;;;;;;2.35;0.68;;;;;;;;;;5077234;28;20157;-87
2023/01/03 13:27:21;;;;;;;2.45;1.25;;;;;;;;;;5093823;28;20431;-88
2023/01/03 13:29:48;;;;;;;1.23;0.80;;;;;;;;;;5092989;28;20052;-87
2023/01/03 13:32:22;;;;;;;2.25;0.60;;;;;;;;;;5093639;28;20454;-88
2023/01/03 13:34:55;;;;;;;1.23;0.70;;;;;;;;;;5093729;28;20047;-88
2023/01/03 13:37:23;;;;;;;1.15;0.55;;;;;;;;;;5093682;28;20078;-88
2023/01/03 13:39:50;;;;;;;0.75;0.70;;;;;;;;;;5093382;28;20048;-87
2023/01/03 13:42:29;;;;;;;1.33;0.90;;;;;;;;;;5093169;28;20052;-87
2023/01/03 13:45:14;;;;;;;1.83;1.00;;;;;;;;;;5093434;28;20135;-86
2023/01/03 13:47:44;;;;;;;3.00;1.30;;;;;;;;;;5093128;28;20485;-87
2023/01/03 13:50:28;;;;;;;2.00;0.93;;;;;;;;;;5093296;28;20052;-87
2023/01/03 13:52:58;;;;;;;1.67;0.90;;;;;;;;;;5092898;28;20058;-88
2023/01/03 13:55:36;;;;;;;2.30;0.70;;;;;;;;;;5093152;28;20144;-87
2023/01/03 13:58:27;;;;;;;1.50;0.80;;;;;;;;;;5092982;28;20176;-86
2023/01/03 14:00:55;;;;;;;3.03;0.85;;;;;;;;;;5092892;28;20040;-88
2023/01/03 14:03:45;;;;;;;3.30;1.30;;;;;;;;;;5093106;28;20058;-87
2023/01/03 14:06:19;;;;;;;1.02;0.90;;;;;;;;;;5093045;28;20044;-86
2023/01/03 14:09:05;;;;;;;1.35;0.85;;;;;;;;;;5093037;28;20090;-87
2023/01/03 14:11:51;;;;;;;1.00;1.00;;;;;;;;;;5093094;28;20079;-87
2023/01/03 14:14:21;;;;;;;1.75;1.33;;;;;;;;;;5093048;28;20489;-87
2023/01/03 14:16:50;;;;;;;3.72;1.25;;;;;;;;;;5092889;28;20060;-87
2023/01/03 14:19:19;;;;;;;1.98;1.15;;;;;;;;;;5093136;28;20048;-87
2023/01/03 14:21:49;;;;;;;3.25;1.10;;;;;;;;;;5092883;28;20097;-87
2023/01/03 14:24:19;;;;;;;3.75;1.30;;;;;;;;;;5092811;28;20050;-88
2023/01/03 14:26:47;;;;;;;3.65;0.90;;;;;;;;;;5093087;28;20408;-87
2023/01/03 14:29:20;;;;;;;7.60;1.10;;;;;;;;;;5093195;28;20139;-88
2023/01/03 14:31:49;;;;;;;0.70;0.70;;;;;;;;;;5092821;28;20135;-87
2023/01/03 14:34:25;;;;;;;2.92;1.15;;;;;;;;;;5092934;28;20484;-88
2023/01/03 14:36:52;;;;;;;1.95;1.10;;;;;;;;;;5092607;28;20044;-87
2023/01/03 14:39:30;;;;;;;1.48;1.10;;;;;;;;;;5092871;28;20048;-87
2023/01/03 14:41:57;;;;;;;1.55;0.80;;;;;;;;;;5096860;28;20044;-86
2023/01/03 14:44:24;;;;;;;0.70;0.70;;;;;;;;;;5097139;28;20040;-86
2023/01/03 14:46:53;;;;;;;1.38;0.60;;;;;;;;;;5096615;28;20083;-87
2023/01/03 14:49:25;;;;;;;2.08;0.80;;;;;;;;;;5096792;28;20043;-87
2023/01/03 14:51:57;;;;;;;1.10;1.00;;;;;;;;;;5096861;28;20134;-87
2023/01/03 14:54:24;;;;;;;1.67;0.68;;;;;;;;;;5096935;28;20075;-87
2023/01/03 14:56:51;;;;;;;2.47;0.75;;;;;;;;;;5096699;28;20394;-88
2023/01/03 14:59:21;;;;;;;1.77;0.80;;;;;;;;;;5096768;28;20475;-87
2023/01/03 15:01:48;;;;;;;5.40;0.80;;;;;;;;;;5096363;28;20461;-87
2023/01/03 15:04:16;;;;;;;0.93;0.85;;;;;;;;;;5096550;28;20044;-88
2023/01/03 15:06:57;;;;;;;2.70;1.67;;;;;;;;;;5096211;28;20493;-87
2023/01/03 15:09:35;;;;;;;10.57;3.45;;;;;;;;;;5096403;28;20044;-88
2023/01/03 15:12:04;;;;;;;2.67;2.40;;;;;;;;;;5096246;28;20052;-87
2023/01/03 15:14:33;;;;;;;3.35;2.33;;;;;;;;;;5096188;28;20048;-87
2023/01/03 15:17:22;;;;;;;2.92;2.70;;;;;;;;;;5095773;28;20500;-87
2023/01/03 15:19:52;;;;;;;4.82;3.38;;;;;;;;;;5096494;28;20043;-87
2023/01/03 15:22:20;;;;;;;3.78;2.42;;;;;;;;;;5096065;28;20587;-87
2023/01/03 15:24:49;;;;;;;2.55;2.00;;;;;;;;;;5095924;28;20135;-87
2023/01/03 15:27:41;;;;;;;1.83;1.70;;;;;;;;;;5095529;28;20561;-87
2023/01/03 15:30:09;;;;;;;2.40;1.70;;;;;;;;;;5095705;28;20506;-87
2023/01/03 15:33:04;;;;;;;5.40;1.63;;;;;;;;;;5096134;28;20147;-88
2023/01/03 15:35:42;;;;;;;3.05;1.88;;;;;;;;;;5083489;28;20298;-88
2023/01/03 15:38:31;;;;;;;4.03;2.90;;;;;;;;;;5095626;28;20423;-87
2023/01/03 15:40:58;;;;;;;2.80;1.55;;;;;;;;;;5095219;28;20135;-86
2023/01/03 15:43:29;;;;;;;3.25;2.10;;;;;;;;;;5095585;28;20051;-88
2023/01/03 15:46:05;;;;;;;6.85;2.78;;;;;;;;;;5095035;28;20563;-87
2023/01/03 15:48:36;;;;;;;3.10;2.28;;;;;;;;;;5095468;28;20135;-87
2023/01/03 15:51:04;;;;;;;3.13;1.80;;;;;;;;;;5095177;28;20074;-88
2023/01/03 15:53:33;;;;;;;3.10;1.95;;;;;;;;;;5094764;28;20408;-87
2023/01/03 15:56:24;;;;;;;2.28;1.75;;;;;;;;;;5095449;28;20129;-87
2023/01/03 15:58:53;;;;;;;3.08;1.90;;;;;;;;;;5095440;28;20495;-88
2023/01/03 16:01:20;;;;;;;7.63;2.50;;;;;;;;;;5095195;28;20044;-88
2023/01/03 16:03:48;;;;;;;5.43;4.03;;;;;;;;;;5094748;28;20052;-88
2023/01/03 16:06:16;;;;;;;10.65;8.05;;;;;;;;;;5095026;28;20048;-88